Time;durP1;ratioP1;P1;durP2;ratioP2;P2;SDS_P1;SDS_P2;PMS_P1;PMS_P2;Temp;Humidity;BMP_temperature;BMP_pressure;BME280_temperature;BME280_humidity;BME280_pressure;Samples;Min_cycle;Max_cycle;Signal;HPM_P1;HPM_P2
2023/02/24 00:01:38;;;;;;;5.40;1.50;;;15.20;60.50;;;;;;6275902;22;20002;-80
2023/02/24 00:04:08;;;;;;;2.22;1.00;;;15.20;60.50;;;;;;6276020;22;20038;-82
2023/02/24 00:06:37;;;;;;;2.40;1.33;;;15.20;60.60;;;;;;6276299;22;20019;-79
2023/02/24 00:09:09;;;;;;;5.80;1.50;;;15.20;60.50;;;;;;6275699;22;20510;-79
2023/02/24 00:11:41;;;;;;;4.28;1.55;;;15.10;60.50;;;;;;6275612;22;20055;-82
2023/02/24 00:14:11;;;;;;;2.35;1.38;;;15.10;60.60;;;;;;6275928;22;19996;-82
2023/02/24 00:16:37;;;;;;;1.90;0.82;;;15.10;60.60;;;;;;6275988;22;20000;-82
2023/02/24 00:19:06;;;;;;;3.63;1.30;;;15.10;60.60;;;;;;6275416;22;20423;-82
2023/02/24 00:21:33;;;;;;;2.42;1.27;;;15.00;60.60;;;;;;6276040;22;20070;-79
2023/02/24 00:23:59;;;;;;;4.30;1.30;;;15.00;60.60;;;;;;6275822;22;20004;-80
2023/02/24 00:26:28;;;;;;;4.25;1.55;;;15.00;60.60;;;;;;6275358;22;20008;-76
2023/02/24 00:28:59;;;;;;;2.10;1.10;;;15.00;60.60;;;;;;6275550;22;20003;-76
2023/02/24 00:31:29;;;;;;;3.05;1.40;;;15.00;60.70;;;;;;6275815;22;20007;-76
2023/02/24 00:33:57;;;;;;;1.67;0.85;;;14.90;60.60;;;;;;6275701;22;20004;-76
2023/02/24 00:36:24;;;;;;;2.78;1.42;;;15.00;60.60;;;;;;6275781;22;19996;-76
2023/02/24 00:39:12;;;;;;;2.10;0.80;;;15.00;60.60;;;;;;6275387;22;20002;-76
2023/02/24 00:41:41;;;;;;;3.05;1.20;;;15.00;60.40;;;;;;6275749;22;20331;-76
2023/02/24 00:44:09;;;;;;;1.40;1.00;;;15.00;60.40;;;;;;6285611;22;20034;-81
2023/02/24 00:46:46;;;;;;;2.47;1.20;;;14.90;60.30;;;;;;6285788;22;20316;-82
2023/02/24 00:49:15;;;;;;;4.28;1.48;;;14.90;60.40;;;;;;6285776;22;20379;-81
2023/02/24 00:51:43;;;;;;;2.55;1.20;;;14.90;60.50;;;;;;6285741;22;20063;-81
2023/02/24 00:54:13;;;;;;;2.85;1.13;;;14.90;60.40;;;;;;6285732;22;20330;-79
2023/02/24 00:56:40;;;;;;;3.55;1.40;;;14.90;60.40;;;;;;6285741;22;20002;-80
2023/02/24 00:59:06;;;;;;;4.65;1.33;;;14.90;61.00;;;;;;6285604;22;20423;-80
2023/02/24 01:01:33;;;;;;;3.08;1.25;;;14.90;60.40;;;;;;6285616;22;20059;-80
2023/02/24 01:04:09;;;;;;;4.32;1.30;;;14.80;61.00;;;;;;6285491;22;20132;-81
2023/02/24 01:06:38;;;;;;;2.10;0.88;;;14.90;60.30;;;;;;6285709;22;20055;-80
2023/02/24 01:09:07;;;;;;;3.17;1.17;;;14.80;60.90;;;;;;6285538;22;19999;-79
2023/02/24 01:14:20;;;;;;;4.03;1.10;;;14.80;60.20;;;;;;6275213;22;20015;-82
2023/02/24 01:16:49;;;;;;;2.28;1.40;;;14.80;60.20;;;;;;6285444;22;20002;-81
2023/02/24 01:19:23;;;;;;;1.95;1.10;;;14.80;60.20;;;;;;6248043;22;20147;-80
2023/02/24 01:21:54;;;;;;;2.28;0.85;;;14.80;60.20;;;;;;6248172;22;20066;-82
2023/02/24 01:24:22;;;;;;;1.75;1.20;;;14.80;60.30;;;;;;6285293;22;20004;-80
2023/02/24 01:26:48;;;;;;;3.33;1.30;;;14.70;60.20;;;;;;6285246;22;20011;-80
2023/02/24 01:29:14;;;;;;;2.40;1.30;;;14.70;60.20;;;;;;6285378;22;19999;-79
2023/02/24 01:31:41;;;;;;;2.90;1.10;;;14.80;60.20;;;;;;6285419;22;19995;-82
2023/02/24 01:34:09;;;;;;;5.13;1.33;;;14.70;60.10;;;;;;6285771;22;20007;-80
2023/02/24 01:36:37;;;;;;;2.20;1.27;;;14.70;60.10;;;;;;6285767;22;20078;-80
2023/02/24 01:39:09;;;;;;;3.13;1.25;;;14.70;60.10;;;;;;6285841;22;20003;-80
2023/02/24 01:41:40;;;;;;;3.58;1.25;;;14.70;60.20;;;;;;6287551;22;20086;-81
2023/02/24 01:44:16;;;;;;;2.72;1.08;;;14.70;60.20;;;;;;6287304;22;20356;-81
2023/02/24 01:46:48;;;;;;;1.98;1.05;;;14.70;60.10;;;;;;6277219;22;19995;-82
2023/02/24 01:49:20;;;;;;;2.90;1.23;;;14.70;60.10;;;;;;6287471;22;20015;-81
2023/02/24 01:51:48;;;;;;;2.10;1.30;;;14.60;60.00;;;;;;6287560;22;19998;-81
2023/02/24 01:54:17;;;;;;;2.95;1.20;;;14.60;60.10;;;;;;6276997;22;20082;-81
2023/02/24 01:56:50;;;;;;;2.80;0.90;;;14.60;60.10;;;;;;6287510;22;20034;-82
2023/02/24 01:59:17;;;;;;;2.95;1.40;;;14.60;60.10;;;;;;6287551;22;19996;-81
2023/02/24 02:01:44;;;;;;;3.97;1.13;;;14.60;60.00;;;;;;6287287;22;19996;-81
2023/02/24 02:04:45;;;;;;;5.25;1.65;;;14.60;60.00;;;;;;6287263;22;20015;-81
2023/02/24 02:07:14;;;;;;;2.53;1.00;;;14.60;60.00;;;;;;6203115;22;20000;-82
2023/02/24 02:09:42;;;;;;;1.45;0.77;;;14.60;60.00;;;;;;6287347;22;20052;-80
2023/02/24 02:12:08;;;;;;;2.55;1.20;;;14.60;60.00;;;;;;6287459;22;20407;-81
2023/02/24 02:14:37;;;;;;;2.25;1.30;;;14.60;59.90;;;;;;6287527;22;20006;-80
2023/02/24 02:17:11;;;;;;;1.85;1.00;;;14.50;60.50;;;;;;6287432;22;20026;-80
2023/02/24 02:20:00;;;;;;;2.40;0.98;;;14.50;60.00;;;;;;6276997;22;20074;-80
2023/02/24 02:22:29;;;;;;;2.80;1.10;;;14.50;60.00;;;;;;6276674;22;19995;-80
2023/02/24 02:25:24;;;;;;;2.13;1.10;;;14.50;60.00;;;;;;6276951;22;20080;-80
2023/02/24 02:28:04;;;;;;;2.55;1.08;;;14.50;60.00;;;;;;6209126;22;20000;-80
2023/02/24 02:30:54;;;;;;;3.00;1.10;;;14.40;60.10;;;;;;6277237;22;20000;-81
2023/02/24 02:33:41;;;;;;;3.42;1.00;;;14.40;60.00;;;;;;6277287;22;20015;-80
2023/02/24 02:36:15;;;;;;;2.17;1.10;;;14.40;60.10;;;;;;6276661;22;20003;-81
2023/02/24 02:39:03;;;;;;;2.47;1.05;;;14.40;59.90;;;;;;6276597;22;19996;-81
2023/02/24 02:41:38;;;;;;;3.30;0.90;;;14.40;60.00;;;;;;6277105;22;20012;-81
2023/02/24 02:44:10;;;;;;;2.65;1.35;;;14.40;59.90;;;;;;6276723;22;20035;-81
2023/02/24 02:46:47;;;;;;;3.25;1.27;;;14.40;60.50;;;;;;6277057;22;20031;-81
2023/02/24 02:49:41;;;;;;;2.00;1.08;;;14.40;59.80;;;;;;6277003;22;20059;-81
2023/02/24 02:52:18;;;;;;;1.75;1.10;;;14.40;60.40;;;;;;6275906;22;20376;-81
2023/02/24 02:54:57;;;;;;;2.47;1.13;;;14.40;59.80;;;;;;6276787;22;19996;-81
2023/02/24 02:57:30;;;;;;;2.72;1.00;;;14.40;59.80;;;;;;6276770;22;19991;-81
2023/02/24 03:00:12;;;;;;;1.80;0.90;;;14.30;60.40;;;;;;6276899;22;20046;-82
2023/02/24 03:02:43;;;;;;;2.42;1.20;;;14.30;59.70;;;;;;6276684;22;19996;-81
2023/02/24 03:05:16;;;;;;;2.30;1.17;;;14.30;59.70;;;;;;6276967;22;20019;-80
2023/02/24 03:07:47;;;;;;;3.78;1.23;;;14.30;59.80;;;;;;6276661;22;19996;-81
2023/02/24 03:10:21;;;;;;;2.50;1.00;;;14.30;59.80;;;;;;6276705;22;20000;-81
2023/02/24 03:12:52;;;;;;;3.33;0.90;;;14.30;59.80;;;;;;6276816;22;19999;-81
2023/02/24 03:15:21;;;;;;;1.33;0.80;;;14.30;59.80;;;;;;6276941;22;19999;-80
2023/02/24 03:17:56;;;;;;;2.60;1.05;;;14.30;59.80;;;;;;6276710;22;19995;-81
2023/02/24 03:20:38;;;;;;;1.92;0.80;;;14.20;59.70;;;;;;6276745;22;20113;-81
2023/02/24 03:23:15;;;;;;;1.58;0.90;;;14.20;59.90;;;;;;6276141;22;20058;-81
2023/02/24 03:25:47;;;;;;;1.05;0.70;;;14.20;59.80;;;;;;6275990;22;20030;-81
2023/02/24 03:28:34;;;;;;;2.28;1.05;;;14.20;60.50;;;;;;6276746;22;20347;-81
2023/02/24 03:31:07;;;;;;;1.73;1.13;;;14.20;59.90;;;;;;6276715;22;19996;-81
2023/02/24 03:33:39;;;;;;;2.42;1.10;;;14.20;59.80;;;;;;6276562;22;20034;-81
2023/02/24 03:36:06;;;;;;;3.90;1.15;;;14.10;59.70;;;;;;6276423;22;20000;-81
2023/02/24 03:38:37;;;;;;;2.00;1.27;;;14.20;59.80;;;;;;6276004;22;20416;-81
2023/02/24 03:41:05;;;;;;;2.58;1.15;;;14.20;59.80;;;;;;6276329;22;20067;-81
2023/02/24 03:43:38;;;;;;;2.22;0.82;;;14.10;59.70;;;;;;6276231;22;20312;-81
2023/02/24 03:46:05;;;;;;;2.60;1.10;;;14.10;59.80;;;;;;6275949;22;20007;-81
2023/02/24 03:48:33;;;;;;;3.00;1.10;;;14.10;59.80;;;;;;6275386;22;20389;-81
2023/02/24 03:50:59;;;;;;;2.97;1.10;;;14.10;59.80;;;;;;6276268;22;20362;-81
2023/02/24 03:53:35;;;;;;;2.67;0.93;;;14.10;59.80;;;;;;6276181;22;20077;-81
2023/02/24 03:56:24;;;;;;;3.53;0.95;;;14.10;59.90;;;;;;6276306;22;19999;-81
2023/02/24 03:59:17;;;;;;;2.30;0.93;;;14.10;60.50;;;;;;6276241;22;20023;-81
2023/02/24 04:01:56;;;;;;;1.52;0.80;;;14.10;59.80;;;;;;6276172;22;20007;-81
2023/02/24 04:05:10;;;;;;;2.13;1.20;;;14.10;59.80;;;;;;6275721;22;20008;-81
2023/02/24 04:07:51;;;;;;;2.45;0.90;;;14.00;59.70;;;;;;6122795;23;20489;-81
2023/02/24 04:10:26;;;;;;;1.70;1.10;;;14.00;59.80;;;;;;6123017;23;20070;-81
2023/02/24 04:13:00;;;;;;;2.47;1.00;;;14.00;59.90;;;;;;6229727;22;20011;-81
2023/02/24 04:15:36;;;;;;;2.28;0.85;;;14.00;59.90;;;;;;6276077;22;19996;-81
2023/02/24 04:18:07;;;;;;;4.63;0.95;;;13.90;59.90;;;;;;6276099;22;20133;-81
2023/02/24 04:20:35;;;;;;;1.15;0.90;;;13.90;59.80;;;;;;6275766;22;20023;-81
2023/02/24 04:23:09;;;;;;;1.73;0.90;;;13.90;59.80;;;;;;6275963;22;20011;-81
2023/02/24 04:25:37;;;;;;;2.28;0.95;;;13.90;59.80;;;;;;6275816;22;20386;-81
2023/02/24 04:28:06;;;;;;;2.25;0.90;;;13.90;59.80;;;;;;6275538;22;19995;-81
2023/02/24 04:30:37;;;;;;;1.75;0.70;;;13.90;59.90;;;;;;6275915;22;20041;-81
2023/02/24 04:33:03;;;;;;;2.72;0.90;;;13.90;59.80;;;;;;6275813;22;20319;-81
2023/02/24 04:35:30;;;;;;;1.40;0.93;;;13.90;59.80;;;;;;6275665;22;20435;-81
2023/02/24 04:37:56;;;;;;;2.28;1.27;;;13.90;59.80;;;;;;6275429;22;19992;-81
2023/02/24 04:40:22;;;;;;;2.65;1.33;;;13.80;60.00;;;;;;6275758;22;20000;-81
2023/02/24 04:42:51;;;;;;;2.25;1.10;;;13.80;60.00;;;;;;6275839;22;20003;-80
2023/02/24 04:45:23;;;;;;;2.80;0.98;;;13.80;60.20;;;;;;6275389;22;20025;-81
2023/02/24 04:47:55;;;;;;;1.60;0.77;;;13.80;60.20;;;;;;6275776;22;20051;-81
2023/02/24 04:50:24;;;;;;;2.67;1.00;;;13.80;60.20;;;;;;6275476;22;20076;-81
2023/02/24 04:53:08;;;;;;;1.23;0.65;;;13.80;60.20;;;;;;6275354;22;20053;-81
2023/02/24 04:55:39;;;;;;;2.75;0.82;;;13.80;60.20;;;;;;6275793;22;20007;-81
2023/02/24 04:58:08;;;;;;;1.55;0.80;;;13.80;60.20;;;;;;6275254;22;20443;-81
2023/02/24 05:00:34;;;;;;;1.65;1.00;;;13.80;60.20;;;;;;6275709;22;20075;-81
2023/02/24 05:03:03;;;;;;;2.10;0.80;;;13.80;60.20;;;;;;6275478;22;20432;-81
2023/02/24 05:05:32;;;;;;;2.00;0.70;;;13.80;60.30;;;;;;6275548;22;20360;-81
2023/02/24 05:08:16;;;;;;;1.73;0.85;;;13.80;60.20;;;;;;6275131;22;20007;-81
2023/02/24 05:10:45;;;;;;;1.65;0.77;;;13.80;60.20;;;;;;6275955;22;20045;-81
2023/02/24 05:13:18;;;;;;;3.17;0.98;;;13.70;60.10;;;;;;6275043;22;19995;-81
2023/02/24 05:15:46;;;;;;;2.53;0.80;;;13.70;60.20;;;;;;6275547;22;20023;-81
2023/02/24 05:18:15;;;;;;;2.35;0.70;;;13.70;60.20;;;;;;6275655;22;20308;-81
2023/02/24 05:23:32;;;;;;;2.45;0.77;;;13.70;60.10;;;;;;6285614;22;20073;-81
2023/02/24 05:25:58;;;;;;;3.85;0.80;;;13.70;60.10;;;;;;6275135;22;20091;-81
2023/02/24 05:28:25;;;;;;;2.63;0.85;;;13.70;60.10;;;;;;6275619;22;20007;-81
2023/02/24 05:30:55;;;;;;;1.55;0.68;;;13.70;60.20;;;;;;6275211;22;20020;-81
2023/02/24 05:33:21;;;;;;;3.33;1.02;;;13.70;60.20;;;;;;6275540;22;20339;-81
2023/02/24 05:35:49;;;;;;;1.45;0.70;;;13.60;60.10;;;;;;6275588;22;20042;-81
2023/02/24 05:38:18;;;;;;;1.15;0.60;;;13.60;60.10;;;;;;6275603;22;20000;-81
2023/02/24 05:40:48;;;;;;;2.88;0.77;;;13.60;60.20;;;;;;6275465;22;20042;-80
2023/02/24 05:43:17;;;;;;;1.17;0.50;;;13.60;60.20;;;;;;6275126;22;20491;-80
2023/02/24 05:45:46;;;;;;;2.47;0.77;;;13.60;60.20;;;;;;6275596;22;20331;-80
2023/02/24 05:48:15;;;;;;;2.78;1.02;;;13.60;60.10;;;;;;6275462;22;20004;-80
2023/02/24 05:50:49;;;;;;;2.65;0.77;;;13.60;60.10;;;;;;6275003;22;19992;-79
2023/02/24 05:53:15;;;;;;;2.33;0.68;;;13.50;60.10;;;;;;6275503;22;20019;-82
2023/02/24 05:55:42;;;;;;;2.10;0.90;;;13.50;60.10;;;;;;6275445;22;20062;-81
2023/02/24 05:58:08;;;;;;;2.65;0.52;;;13.50;60.10;;;;;;6275013;22;20003;-82
2023/02/24 06:00:37;;;;;;;1.92;0.65;;;13.50;60.00;;;;;;6275434;22;20374;-81
2023/02/24 06:03:16;;;;;;;2.40;0.57;;;13.50;60.10;;;;;;6274895;22;20442;-81
2023/02/24 06:05:42;;;;;;;2.25;0.80;;;13.50;60.00;;;;;;6275444;22;20000;-81
2023/02/24 06:08:10;;;;;;;3.30;0.77;;;13.50;60.10;;;;;;6274969;22;20019;-82
2023/02/24 06:10:39;;;;;;;2.30;0.98;;;13.50;60.10;;;;;;6275396;22;20334;-79
2023/02/24 06:13:06;;;;;;;2.67;0.65;;;13.50;60.00;;;;;;6275033;22;19996;-81
2023/02/24 06:15:32;;;;;;;2.25;0.75;;;13.50;60.00;;;;;;6275437;22;20002;-81
2023/02/24 06:18:02;;;;;;;3.90;1.02;;;13.40;60.00;;;;;;6274920;22;20587;-82
2023/02/24 06:20:30;;;;;;;2.05;0.70;;;13.50;60.00;;;;;;6275451;22;20007;-81
2023/02/24 06:22:57;;;;;;;2.92;0.90;;;13.50;60.00;;;;;;6274912;22;20008;-84
2023/02/24 06:25:24;;;;;;;1.00;0.70;;;13.40;60.00;;;;;;6274936;22;20053;-81
2023/02/24 06:27:53;;;;;;;3.35;0.88;;;13.40;60.00;;;;;;6275976;22;20431;-81
2023/02/24 06:30:21;;;;;;;4.72;0.90;;;13.40;60.00;;;;;;6277094;22;20003;-82
2023/02/24 06:32:47;;;;;;;4.80;1.10;;;13.40;59.80;;;;;;6277078;22;20011;-79
2023/02/24 06:35:14;;;;;;;6.95;1.42;;;13.40;59.90;;;;;;6276563;22;20428;-77
2023/02/24 06:37:40;;;;;;;4.35;0.90;;;13.50;60.00;;;;;;6276866;22;20061;-77
2023/02/24 06:40:16;;;;;;;9.07;1.08;;;13.40;59.90;;;;;;6277082;22;19992;-77
2023/02/24 06:42:47;;;;;;;3.13;0.80;;;13.40;60.00;;;;;;6276333;22;20423;-77
2023/02/24 06:45:15;;;;;;;1.50;0.60;;;13.40;60.10;;;;;;6276814;22;20000;-76
2023/02/24 06:47:42;;;;;;;4.22;0.95;;;13.30;60.80;;;;;;6276768;22;20330;-77
2023/02/24 06:50:11;;;;;;;7.15;1.08;;;13.30;60.10;;;;;;6276597;22;19996;-77
2023/02/24 06:52:39;;;;;;;2.53;0.63;;;13.30;60.10;;;;;;6276871;22;20003;-77
2023/02/24 06:55:23;;;;;;;2.75;0.75;;;13.30;60.00;;;;;;6276420;22;20019;-77
2023/02/24 06:58:03;;;;;;;3.33;0.80;;;13.40;59.90;;;;;;6276726;22;19996;-77
2023/02/24 07:00:58;;;;;;;2.53;0.80;;;13.40;59.80;;;;;;6274528;22;20339;-77
2023/02/24 07:04:01;;;;;;;3.25;0.73;;;13.40;59.80;;;;;;6276159;22;20004;-78
2023/02/24 07:06:28;;;;;;;2.20;0.55;;;13.40;59.70;;;;;;6276174;22;20007;-77
2023/02/24 07:08:57;;;;;;;4.03;0.85;;;13.50;59.70;;;;;;6276778;22;20411;-76
2023/02/24 07:11:23;;;;;;;2.75;0.80;;;13.50;59.50;;;;;;6276689;22;20003;-77
2023/02/24 07:13:49;;;;;;;3.90;0.88;;;13.50;59.50;;;;;;6276388;22;20458;-76
2023/02/24 07:16:18;;;;;;;5.22;1.33;;;13.50;59.50;;;;;;6276874;22;20003;-77
2023/02/24 07:18:47;;;;;;;3.90;1.00;;;13.50;59.40;;;;;;6276351;22;20570;-77
2023/02/24 07:21:15;;;;;;;3.65;0.80;;;13.50;59.40;;;;;;6286805;22;20060;-77
2023/02/24 07:23:43;;;;;;;4.25;0.90;;;13.50;59.50;;;;;;6259443;22;20038;-79
2023/02/24 07:26:14;;;;;;;1.85;0.80;;;13.50;59.60;;;;;;6286480;22;20011;-76
2023/02/24 07:28:42;;;;;;;2.58;0.85;;;13.50;59.60;;;;;;6279236;22;19999;-79
2023/02/24 07:31:11;;;;;;;4.22;0.80;;;13.50;59.80;;;;;;6276423;22;19996;-78
2023/02/24 07:33:38;;;;;;;3.63;0.95;;;13.50;59.90;;;;;;6276510;22;20296;-78
2023/02/24 07:36:09;;;;;;;2.42;0.80;;;13.50;60.00;;;;;;6276527;22;19999;-76
2023/02/24 07:38:53;;;;;;;3.03;0.80;;;13.50;60.00;;;;;;6251764;22;20347;-77
2023/02/24 07:41:21;;;;;;;2.30;0.90;;;13.50;60.00;;;;;;6276324;22;19995;-77
2023/02/24 07:43:51;;;;;;;2.13;1.13;;;13.50;60.00;;;;;;6276124;22;20016;-75
2023/02/24 07:46:24;;;;;;;2.05;1.10;;;13.50;60.10;;;;;;6275895;22;20053;-75
2023/02/24 07:48:51;;;;;;;1.58;0.70;;;13.50;60.00;;;;;;6276169;22;19996;-76
2023/02/24 07:51:22;;;;;;;4.70;0.80;;;13.60;60.20;;;;;;6276238;22;20051;-75
2023/02/24 07:53:51;;;;;;;1.95;0.73;;;13.60;60.10;;;;;;6275741;22;20407;-75
2023/02/24 07:56:25;;;;;;;2.83;0.80;;;13.60;60.10;;;;;;6275981;22;20326;-75
2023/02/24 07:58:59;;;;;;;3.08;1.20;;;13.60;60.20;;;;;;6275828;22;19992;-75
2023/02/24 08:01:37;;;;;;;4.90;0.98;;;13.60;60.10;;;;;;6275764;22;20522;-75
2023/02/24 08:04:06;;;;;;;3.20;1.20;;;13.60;60.10;;;;;;6275708;22;20126;-75
2023/02/24 08:06:38;;;;;;;3.03;0.88;;;13.60;60.70;;;;;;6276471;22;20063;-81
2023/02/24 08:11:56;;;;;;;6.80;1.08;;;13.70;59.90;;;;;;6242479;22;20007;-82
2023/02/24 08:14:24;;;;;;;6.18;1.13;;;13.70;59.90;;;;;;6286778;22;20026;-88
2023/02/24 08:16:58;;;;;;;4.80;1.42;;;13.70;59.90;;;;;;6286914;22;20026;-84
2023/02/24 08:19:31;;;;;;;5.00;1.58;;;13.70;59.70;;;;;;6286324;22;19996;-82
2023/02/24 08:22:18;;;;;;;4.10;1.35;;;13.70;59.70;;;;;;6290745;22;19992;-80
2023/02/24 08:24:44;;;;;;;7.57;2.22;;;13.70;59.70;;;;;;6280942;22;20008;-79
2023/02/24 08:27:10;;;;;;;9.23;1.98;;;13.70;59.70;;;;;;6285982;22;20004;-80
2023/02/24 08:29:39;;;;;;;4.25;1.58;;;13.70;59.60;;;;;;6286111;22;20053;-89
2023/02/24 08:32:09;;;;;;;2.67;1.50;;;13.80;59.70;;;;;;6286293;22;19995;-81
2023/02/24 08:34:37;;;;;;;8.32;1.40;;;13.80;59.60;;;;;;6286089;22;20003;-82
2023/02/24 08:37:04;;;;;;;2.10;1.17;;;13.70;59.40;;;;;;6285963;22;20419;-83
2023/02/24 08:39:35;;;;;;;7.70;1.10;;;13.80;59.40;;;;;;6285999;22;20003;-83
2023/02/24 08:42:02;;;;;;;3.97;1.40;;;13.80;59.30;;;;;;6276008;22;20074;-82
2023/02/24 08:44:28;;;;;;;6.25;1.15;;;13.80;59.30;;;;;;6275276;22;20010;-81
2023/02/24 08:46:54;;;;;;;5.00;1.30;;;13.90;59.20;;;;;;6275517;22;20000;-79
2023/02/24 08:49:23;;;;;;;4.90;1.17;;;13.90;59.20;;;;;;6275317;22;20442;-83
2023/02/24 08:51:52;;;;;;;4.00;1.40;;;13.90;59.10;;;;;;6275519;22;20458;-83
2023/02/24 08:54:30;;;;;;;2.83;1.33;;;13.90;58.80;;;;;;6275911;22;20008;-82
2023/02/24 08:57:06;;;;;;;5.25;1.30;;;14.00;59.00;;;;;;6275824;22;19996;-83
2023/02/24 08:59:48;;;;;;;3.80;1.30;;;14.00;58.80;;;;;;6275892;22;20000;-83
2023/02/24 09:02:28;;;;;;;5.68;1.75;;;14.00;58.70;;;;;;6275361;22;19995;-84
2023/02/24 09:05:02;;;;;;;2.97;1.40;;;14.00;59.00;;;;;;6275783;22;20028;-82
2023/02/24 09:07:36;;;;;;;3.95;1.20;;;14.00;58.60;;;;;;6275822;22;19995;-81
2023/02/24 09:10:10;;;;;;;6.07;1.42;;;14.00;58.60;;;;;;6275888;22;20000;-82
2023/02/24 09:12:40;;;;;;;4.72;1.30;;;14.00;58.70;;;;;;6275842;22;20343;-82
2023/02/24 09:15:08;;;;;;;5.35;1.42;;;14.10;58.60;;;;;;6275597;22;19999;-82
2023/02/24 09:17:48;;;;;;;5.55;1.63;;;14.00;58.70;;;;;;6275594;22;19996;-83
2023/02/24 09:22:59;;;;;;;3.75;1.35;;;14.00;59.40;;;;;;6285756;22;20447;-82
2023/02/24 09:25:39;;;;;;;3.45;1.35;;;14.00;58.70;;;;;;6274772;22;20082;-82
2023/02/24 09:28:15;;;;;;;4.18;1.15;;;14.10;58.70;;;;;;6275609;22;19999;-78
2023/02/24 09:30:56;;;;;;;6.80;1.35;;;14.10;58.90;;;;;;6275504;22;20071;-81
2023/02/24 09:33:27;;;;;;;3.13;1.30;;;14.10;58.80;;;;;;6275361;22;20019;-83
2023/02/24 09:36:09;;;;;;;2.45;0.93;;;14.10;58.80;;;;;;6275304;22;20006;-82
2023/02/24 09:44:47;;;;;;;9.50;1.20;;;14.10;58.60;;;;;;6285257;22;20350;-80
2023/02/24 09:48:09;;;;;;;7.90;1.50;;;14.10;58.50;;;;;;6275428;22;19999;-75
2023/02/24 09:50:59;;;;;;;5.07;1.20;;;14.10;58.50;;;;;;6282520;22;20365;-79
2023/02/24 09:53:28;;;;;;;7.50;1.43;;;14.10;59.50;;;;;;6275505;22;20000;-80
2023/02/24 09:56:16;;;;;;;5.20;1.38;;;14.10;58.90;;;;;;6275487;22;19996;-78
2023/02/24 09:58:47;;;;;;;6.75;1.48;;;14.10;59.00;;;;;;6275262;22;20075;-76
2023/02/24 10:01:44;;;;;;;4.07;1.17;;;14.10;68.20;;;;;;6274832;22;19999;-78
2023/02/24 10:04:53;;;;;;;3.30;1.40;;;14.10;59.00;;;;;;6276929;22;20087;-81
2023/02/24 10:07:55;;;;;;;5.22;1.55;;;14.10;59.00;;;;;;6277057;22;19999;-81
2023/02/24 10:10:59;;;;;;;3.65;1.10;;;14.10;59.00;;;;;;6273873;22;20058;-78
2023/02/24 10:13:31;;;;;;;4.53;1.30;;;14.20;58.90;;;;;;6277126;22;20000;-83
2023/02/24 10:16:06;;;;;;;6.20;1.50;;;14.20;59.20;;;;;;6277231;22;20022;-81
2023/02/24 10:18:42;;;;;;;8.23;2.03;;;14.20;59.20;;;;;;6286789;22;19992;-77
2023/02/24 10:21:47;;;;;;;4.15;1.27;;;14.20;59.20;;;;;;6286961;22;20019;-80
2023/02/24 10:24:35;;;;;;;6.55;2.40;;;14.20;59.20;;;;;;6264071;22;20097;-80
2023/02/24 10:27:38;;;;;;;7.18;1.65;;;14.20;58.80;;;;;;6286809;22;20015;-81
2023/02/24 10:30:26;;;;;;;4.72;1.45;;;14.20;59.00;;;;;;6253304;22;20007;-81
2023/02/24 10:32:57;;;;;;;4.85;1.70;;;14.20;59.10;;;;;;6287012;22;20427;-76
2023/02/24 10:35:32;;;;;;;2.92;1.50;;;14.20;59.30;;;;;;6287006;22;20002;-80
2023/02/24 10:38:04;;;;;;;7.10;2.20;;;14.20;59.00;;;;;;6286949;22;19992;-79
2023/02/24 10:40:45;;;;;;;5.88;1.30;;;14.30;59.10;;;;;;6276712;22;20006;-80
2023/02/24 10:43:18;;;;;;;4.95;1.70;;;14.20;59.20;;;;;;6286940;22;20095;-81
2023/02/24 10:45:45;;;;;;;4.47;1.25;;;14.30;59.10;;;;;;6276538;22;19992;-80
2023/02/24 10:48:24;;;;;;;5.82;1.60;;;14.30;59.20;;;;;;6286998;22;20002;-79
2023/02/24 10:51:07;;;;;;;5.28;1.33;;;14.30;59.20;;;;;;6287110;22;20508;-77
2023/02/24 10:53:35;;;;;;;6.72;1.55;;;14.30;59.30;;;;;;6286675;22;20003;-77
2023/02/24 10:56:40;;;;;;;5.88;1.25;;;14.20;59.30;;;;;;6286620;22;20425;-77
2023/02/24 11:02:23;;;;;;;3.35;1.30;;;14.20;59.50;;;;;;6286835;22;20011;-80
2023/02/24 11:07:24;;;;;;;4.70;1.67;;;14.20;59.60;;;;;;6286836;22;20078;-78
2023/02/24 11:10:10;;;;;;;5.63;2.10;;;14.20;59.70;;;;;;6276063;22;19996;-79
2023/02/24 11:18:22;;;;;;;5.40;1.42;;;14.30;60.00;;;;;;6288319;22;20011;-84
2023/02/24 11:21:04;;;;;;;3.00;1.20;;;14.30;59.90;;;;;;6286412;22;20045;-82
2023/02/24 11:23:45;;;;;;;5.13;1.33;;;14.30;60.00;;;;;;6276211;22;20078;-85
2023/02/24 11:26:16;;;;;;;3.05;1.33;;;14.30;59.90;;;;;;6276214;22;20016;-83
2023/02/24 11:28:58;;;;;;;3.90;1.58;;;14.30;60.00;;;;;;6276480;22;20377;-80
2023/02/24 11:31:35;;;;;;;2.20;1.23;;;14.30;60.00;;;;;;6276208;22;20007;-78
2023/02/24 11:34:20;;;;;;;3.90;1.45;;;14.30;60.10;;;;;;6276310;22;19995;-81
2023/02/24 11:36:56;;;;;;;2.88;0.98;;;14.30;60.30;;;;;;6276031;22;20438;-80
2023/02/24 11:39:39;;;;;;;4.60;1.20;;;14.30;60.30;;;;;;6276373;22;20012;-77
2023/02/24 11:42:12;;;;;;;3.13;1.42;;;14.30;60.30;;;;;;6276111;22;19995;-78
2023/02/24 11:45:05;;;;;;;3.15;1.10;;;14.30;60.30;;;;;;6275927;22;20004;-78
2023/02/24 11:47:45;;;;;;;2.85;1.05;;;14.30;60.40;;;;;;6276364;22;20056;-81
2023/02/24 11:50:13;;;;;;;2.05;1.13;;;14.30;60.30;;;;;;6286174;22;19992;-80
2023/02/24 11:52:45;;;;;;;1.73;0.90;;;14.30;60.60;;;;;;6286198;22;20371;-81
2023/02/24 11:55:41;;;;;;;2.75;1.25;;;14.30;60.60;;;;;;6275955;22;19999;-81
2023/02/24 11:58:17;;;;;;;2.70;1.20;;;14.30;60.50;;;;;;6285887;22;19992;-81
2023/02/24 12:00:58;;;;;;;3.90;1.10;;;14.30;60.60;;;;;;6276052;22;19996;-82
2023/02/24 12:03:35;;;;;;;2.97;1.00;;;14.40;60.80;;;;;;6276020;22;20010;-81
2023/02/24 12:06:14;;;;;;;2.38;0.90;;;14.40;60.80;;;;;;6285741;22;20023;-80
2023/02/24 12:08:43;;;;;;;3.47;0.80;;;14.30;60.70;;;;;;6285695;22;19996;-82
2023/02/24 12:11:16;;;;;;;2.20;0.98;;;14.40;61.50;;;;;;6285742;22;20002;-81
2023/02/24 12:13:52;;;;;;;3.00;1.00;;;14.40;60.90;;;;;;6285807;22;19999;-79
2023/02/24 12:16:27;;;;;;;2.20;1.00;;;14.40;60.90;;;;;;6285858;22;19996;-79
2023/02/24 12:19:02;;;;;;;2.70;1.00;;;14.40;60.90;;;;;;6285787;22;20489;-79
2023/02/24 12:21:41;;;;;;;2.28;0.80;;;14.40;60.90;;;;;;6285778;22;20023;-79
2023/02/24 12:24:15;;;;;;;1.10;0.63;;;14.40;60.90;;;;;;6283904;22;20061;-82
2023/02/24 12:27:12;;;;;;;1.40;0.88;;;14.40;60.90;;;;;;6273540;22;20008;-80
2023/02/24 12:30:05;;;;;;;1.40;0.70;;;14.40;61.00;;;;;;6247575;22;20335;-79
2023/02/24 12:32:51;;;;;;;2.03;0.95;;;14.40;60.90;;;;;;6274583;22;20023;-80
2023/02/24 12:35:37;;;;;;;0.77;0.70;;;14.40;60.90;;;;;;6257220;22;20335;-82
2023/02/24 12:38:30;;;;;;;1.15;0.80;;;14.40;61.00;;;;;;6273970;22;19995;-79
2023/02/24 12:41:10;;;;;;;2.28;0.82;;;14.50;61.00;;;;;;6275780;22;20008;-81
2023/02/24 12:43:57;;;;;;;3.17;0.95;;;14.50;61.00;;;;;;6285650;22;20087;-78
2023/02/24 12:46:37;;;;;;;3.00;0.80;;;14.50;61.30;;;;;;6248109;22;20032;-80
2023/02/24 12:49:12;;;;;;;1.37;0.60;;;14.50;62.00;;;;;;6258257;22;20012;-76
2023/02/24 12:52:06;;;;;;;3.80;1.05;;;14.50;61.30;;;;;;6275663;22;20254;-80
2023/02/24 12:54:41;;;;;;;1.70;1.02;;;14.50;61.90;;;;;;6275551;22;20000;-82
2023/02/24 12:57:17;;;;;;;3.30;0.85;;;14.50;61.80;;;;;;6275555;22;20007;-78
2023/02/24 12:59:44;;;;;;;10.13;1.55;;;14.50;62.10;;;;;;6275664;22;19996;-88
2023/02/24 13:02:39;;;;;;;1.48;0.88;;;14.60;61.90;;;;;;6224885;22;20004;-79
2023/02/24 13:05:27;;;;;;;2.78;1.15;;;14.50;61.90;;;;;;6276125;22;20022;-84
2023/02/24 13:08:17;;;;;;;8.65;1.58;;;14.50;61.90;;;;;;6249371;22;19996;-85
2023/02/24 13:11:13;;;;;;;4.75;1.20;;;14.60;61.90;;;;;;6248996;22;20062;-80
2023/02/24 13:14:01;;;;;;;4.13;0.90;;;14.60;61.80;;;;;;6252335;22;20031;-81
2023/02/24 13:16:33;;;;;;;4.80;1.10;;;14.60;62.00;;;;;;6226762;22;20011;-81
2023/02/24 13:19:27;;;;;;;2.95;1.20;;;14.60;62.00;;;;;;6233622;22;20338;-81
2023/02/24 13:22:02;;;;;;;4.68;1.10;;;14.60;62.00;;;;;;6275802;22;20042;-81
2023/02/24 13:24:28;;;;;;;6.10;1.25;;;14.70;62.10;;;;;;6275451;22;20022;-80
2023/02/24 13:27:19;;;;;;;4.15;0.80;;;14.60;62.00;;;;;;6285276;22;20011;-81
2023/02/24 13:29:51;;;;;;;3.22;0.90;;;14.60;61.90;;;;;;6275376;22;20074;-82
2023/02/24 13:32:32;;;;;;;3.78;1.00;;;14.70;62.10;;;;;;6285886;22;20030;-87
2023/02/24 13:35:16;;;;;;;4.15;0.93;;;14.70;62.00;;;;;;6275378;22;19993;-82
2023/02/24 13:37:45;;;;;;;3.38;1.10;;;14.70;62.00;;;;;;6277862;22;20026;-84
2023/02/24 13:40:15;;;;;;;3.47;1.08;;;14.70;62.10;;;;;;6277600;22;20427;-81
2023/02/24 13:42:57;;;;;;;4.23;1.27;;;14.70;62.00;;;;;;6277751;22;20004;-78
2023/02/24 13:45:28;;;;;;;2.83;0.90;;;14.70;62.10;;;;;;6277615;22;20267;-78
2023/02/24 13:48:19;;;;;;;2.65;1.20;;;14.70;62.00;;;;;;6277322;22;19995;-81
2023/02/24 13:50:54;;;;;;;3.38;0.98;;;14.70;62.10;;;;;;6277686;22;20314;-78
2023/02/24 13:53:45;;;;;;;4.70;1.52;;;14.80;62.10;;;;;;6287488;22;19995;-80
2023/02/24 13:56:23;;;;;;;4.70;1.63;;;14.70;62.10;;;;;;6287206;22;19999;-78